createdAt,value
2019-04-20T00:00:58.552Z,45.87
2019-04-20T00:03:39.442Z,45.32
2019-04-20T00:06:09.134Z,45.16
2019-04-20T00:08:44.400Z,45.58
2019-04-20T00:11:27.550Z,45.98
2019-04-20T00:14:04.072Z,46.32
2019-04-20T00:16:31.614Z,45.96
2019-04-20T00:19:07.707Z,46.77
2019-04-20T00:21:56.161Z,47.18
2019-04-20T00:24:43.878Z,48.48
2019-04-20T00:27:47.170Z,48.18
2019-04-20T00:30:06.681Z,48.24
2019-04-20T00:32:46.880Z,47.76
2019-04-20T00:35:08.858Z,47.83
2019-04-20T00:37:44.571Z,48.04
2019-04-20T00:40:19.614Z,48.35
2019-04-20T00:42:56.460Z,48.82
2019-04-20T00:45:33.022Z,49.46
2019-04-20T00:48:19.036Z,49.46
2019-04-20T00:50:57.225Z,49.47
2019-04-20T00:53:31.376Z,49.18
2019-04-20T00:55:59.095Z,49.25
2019-04-20T00:58:46.287Z,49.54
2019-04-20T01:01:32.201Z,49.76
2019-04-20T01:04:07.102Z,50.42
2019-04-20T01:06:54.168Z,50.16
2019-04-20T01:09:22.353Z,50.34
2019-04-20T01:11:58.598Z,50.20
2019-04-20T01:14:40.623Z,50.09
2019-04-20T01:17:12.070Z,49.97
2019-04-20T01:19:43.204Z,50.11
2019-04-20T01:22:21.880Z,49.81
2019-04-20T01:24:53.693Z,50.02
2019-04-20T01:27:42.416Z,50.10
2019-04-20T01:30:16.309Z,49.76
2019-04-20T01:33:00.491Z,49.49
2019-04-20T01:35:39.383Z,49.24
2019-04-20T01:38:16.684Z,49.12
2019-04-20T01:40:33.766Z,49.02
2019-04-20T01:43:08.024Z,48.69
2019-04-20T01:45:43.924Z,48.08
2019-04-20T01:48:25.808Z,48.60
2019-04-20T01:51:02.747Z,48.15
2019-04-20T01:53:58.515Z,48.32
2019-04-20T01:56:21.775Z,48.50
2019-04-20T01:59:28.902Z,48.46
2019-04-20T02:02:13.153Z,48.70
2019-04-20T02:05:04.474Z,49.15
2019-04-20T02:07:38.971Z,49.43
2019-04-20T02:10:13.405Z,49.24
2019-04-20T02:12:50.356Z,48.85
2019-04-20T02:15:31.120Z,48.95
2019-04-20T02:18:07.669Z,49.26
2019-04-20T02:20:54.290Z,49.37
2019-04-20T02:23:25.174Z,49.50
2019-04-20T02:25:48.029Z,49.64
2019-04-20T02:28:44.253Z,49.79
2019-04-20T02:31:52.119Z,49.71
2019-04-20T02:34:18.323Z,50.01
2019-04-20T02:42:08.785Z,50.54
2019-04-20T02:47:25.774Z,51.41
2019-04-20T02:55:09.585Z,51.24
2019-04-20T02:57:47.298Z,51.29
2019-04-20T03:00:12.233Z,51.41
2019-04-20T03:02:41.436Z,52.40
2019-04-20T03:05:15.223Z,52.56
2019-04-20T03:07:57.409Z,52.33
2019-04-20T03:10:44.864Z,52.55
2019-04-20T03:13:12.734Z,52.22
2019-04-20T03:15:41.797Z,51.89
2019-04-20T03:18:22.318Z,50.98
2019-04-20T03:20:59.164Z,50.67
2019-04-20T03:23:44.502Z,50.05
2019-04-20T03:26:19.004Z,50.07
2019-04-20T03:29:05.330Z,49.75
2019-04-20T03:32:27.931Z,49.92
2019-04-20T03:35:03.935Z,49.92
2019-04-20T03:37:20.016Z,50.04
2019-04-20T03:39:46.656Z,49.50
2019-04-20T03:42:07.181Z,49.62
2019-04-20T03:44:50.083Z,49.45
2019-04-20T03:47:26.676Z,49.40
2019-04-20T03:50:10.692Z,49.36
2019-04-20T03:53:14.194Z,49.88
2019-04-20T03:56:02.595Z,49.51
2019-04-20T03:58:55.428Z,49.72
2019-04-20T04:02:17.381Z,49.39
2019-04-20T04:04:38.688Z,49.42
2019-04-20T04:06:58.050Z,49.27
2019-04-20T04:09:39.801Z,49.36
2019-04-20T04:13:05.401Z,48.96
2019-04-20T04:15:44.247Z,49.40
2019-04-20T04:18:26.012Z,49.28
2019-04-20T04:21:01.404Z,48.91
2019-04-20T04:23:47.371Z,49.01
2019-04-20T04:26:25.931Z,48.96
2019-04-20T04:29:02.746Z,49.07
2019-04-20T04:31:39.131Z,49.16
2019-04-20T04:34:10.765Z,48.73
2019-04-20T04:36:49.763Z,48.26
2019-04-20T04:42:10.333Z,48.32
2019-04-20T04:44:33.521Z,47.42
2019-04-20T04:46:58.556Z,47.17
2019-04-20T04:49:36.661Z,46.79
2019-04-20T04:52:12.393Z,46.39
2019-04-20T04:54:52.966Z,45.22
2019-04-20T04:57:20.052Z,44.68
2019-04-20T04:59:55.199Z,43.63
2019-04-20T05:02:37.351Z,42.43
2019-04-20T05:05:47.317Z,41.27
2019-04-20T05:08:14.434Z,39.42
2019-04-20T05:10:39.220Z,38.11
2019-04-20T05:13:14.150Z,36.97
2019-04-20T05:16:00.153Z,35.82
2019-04-20T05:18:53.023Z,34.74
2019-04-20T05:21:26.022Z,34.05
2019-04-20T05:24:09.877Z,33.31
2019-04-20T05:27:01.914Z,32.47
2019-04-20T05:29:24.118Z,32.46
2019-04-20T05:32:03.577Z,31.80
2019-04-20T05:35:02.350Z,31.05
2019-04-20T05:37:34.392Z,31.22
2019-04-20T05:40:05.987Z,31.00
2019-04-20T05:42:49.922Z,30.55
2019-04-20T05:45:22.289Z,30.43
2019-04-20T05:47:58.610Z,29.18
2019-04-20T05:50:37.957Z,28.89
2019-04-20T05:53:14.455Z,28.66
2019-04-20T05:55:50.297Z,29.07
2019-04-20T05:58:30.976Z,28.44
2019-04-20T06:01:10.884Z,28.34
2019-04-20T06:03:41.346Z,28.10
2019-04-20T06:06:20.647Z,28.92
2019-04-20T06:08:53.953Z,27.62
2019-04-20T06:11:25.772Z,28.01
2019-04-20T06:14:08.005Z,27.25
2019-04-20T06:17:28.504Z,27.10
2019-04-20T06:20:02.295Z,26.93
2019-04-20T06:22:50.888Z,27.80
2019-04-20T06:25:54.245Z,26.17
2019-04-20T06:28:22.282Z,26.11
2019-04-20T06:30:53.965Z,25.43
2019-04-20T06:34:30.541Z,26.25
2019-04-20T06:36:54.266Z,25.41
2019-04-20T06:39:44.972Z,25.45
2019-04-20T06:42:23.473Z,27.46
2019-04-20T06:44:45.774Z,27.58
2019-04-20T06:47:30.697Z,26.39
2019-04-20T06:50:08.629Z,27.04
2019-04-20T06:52:53.801Z,26.19
2019-04-20T06:55:38.161Z,26.17
2019-04-20T06:58:24.885Z,25.92
2019-04-20T07:00:55.349Z,26.50
2019-04-20T07:03:37.560Z,25.94
2019-04-20T07:06:08.511Z,26.01
2019-04-20T07:08:56.914Z,24.66
2019-04-20T07:11:14.720Z,24.49
2019-04-20T07:13:35.903Z,25.26
2019-04-20T07:16:43.283Z,25.15
2019-04-20T07:19:21.292Z,25.27
2019-04-20T07:22:26.340Z,24.36
2019-04-20T07:24:52.039Z,24.14
2019-04-20T07:27:22.940Z,24.03
2019-04-20T07:30:06.279Z,25.07
2019-04-20T07:32:44.354Z,24.07
2019-04-20T07:35:14.085Z,24.05
2019-04-20T07:40:24.643Z,24.09
2019-04-20T07:43:19.723Z,23.99
2019-04-20T07:45:40.101Z,24.24
2019-04-20T07:48:15.435Z,24.26
2019-04-20T07:50:44.962Z,24.10
2019-04-20T07:53:28.174Z,24.56
2019-04-20T07:56:05.064Z,24.23
2019-04-20T07:58:34.780Z,23.87
2019-04-20T08:01:41.295Z,23.52
2019-04-20T08:04:13.615Z,24.18
2019-04-20T08:06:42.182Z,23.70
2019-04-20T08:09:22.197Z,24.34
2019-04-20T08:12:22.155Z,24.16
2019-04-20T08:14:55.406Z,24.37
2019-04-20T08:17:31.441Z,24.69
2019-04-20T08:19:59.512Z,24.34
2019-04-20T08:22:42.213Z,24.57
2019-04-20T08:25:08.371Z,23.95
2019-04-20T08:27:48.786Z,23.14
2019-04-20T08:30:56.138Z,23.43
2019-04-20T08:33:30.919Z,23.42
2019-04-20T08:36:13.537Z,23.90
2019-04-20T08:41:12.871Z,25.68
2019-04-20T08:43:58.939Z,26.52
2019-04-20T08:46:26.463Z,25.96
2019-04-20T08:49:13.134Z,24.98
2019-04-20T08:51:53.749Z,24.17
2019-04-20T08:54:16.547Z,23.53
2019-04-20T08:56:41.549Z,22.85
2019-04-20T08:59:09.654Z,23.30
2019-04-20T09:01:46.765Z,23.90
2019-04-20T09:04:32.891Z,22.67
2019-04-20T09:07:05.571Z,22.75
2019-04-20T09:09:52.543Z,22.77
2019-04-20T09:12:27.765Z,21.88
2019-04-20T09:14:48.799Z,21.78
2019-04-20T09:17:36.638Z,22.15
2019-04-20T09:20:12.623Z,22.66
2019-04-20T09:23:07.118Z,22.42
2019-04-20T09:28:40.510Z,22.18
2019-04-20T09:31:33.154Z,22.36
2019-04-20T09:34:25.975Z,23.41
2019-04-20T09:37:36.937Z,22.23
2019-04-20T09:40:02.391Z,22.38
2019-04-20T09:42:34.459Z,22.31
2019-04-20T09:45:20.249Z,22.11
2019-04-20T09:47:51.514Z,21.84
2019-04-20T09:50:40.897Z,21.62
2019-04-20T09:53:14.323Z,22.14
2019-04-20T09:55:53.392Z,22.99
2019-04-20T09:58:21.258Z,22.63
2019-04-20T10:01:02.192Z,22.57
2019-04-20T10:03:22.626Z,22.34
2019-04-20T10:05:57.595Z,21.56
2019-04-20T10:08:34.885Z,21.62
2019-04-20T10:11:07.701Z,21.67
2019-04-20T10:13:42.360Z,21.27
2019-04-20T10:16:16.064Z,21.42
2019-04-20T10:18:53.254Z,21.10
2019-04-20T10:21:27.653Z,20.79
2019-04-20T10:24:02.787Z,20.59
2019-04-20T10:26:38.762Z,19.98
2019-04-20T10:29:13.292Z,19.54
2019-04-20T10:31:54.332Z,20.55
2019-04-20T10:34:26.428Z,20.33
2019-04-20T10:37:19.719Z,19.61
2019-04-20T10:39:54.397Z,20.49
2019-04-20T10:42:30.132Z,20.66
2019-04-20T10:45:05.927Z,20.27
2019-04-20T10:47:41.069Z,20.07
2019-04-20T10:50:16.854Z,19.62
2019-04-20T10:52:51.871Z,20.47
2019-04-20T10:55:27.152Z,19.94
2019-04-20T10:58:03.733Z,20.41
2019-04-20T11:00:44.230Z,19.73
2019-04-20T11:03:17.926Z,20.72
2019-04-20T11:05:53.010Z,21.23
2019-04-20T11:08:26.878Z,21.29
2019-04-20T11:11:11.801Z,20.52
2019-04-20T11:13:37.527Z,21.56
2019-04-20T11:16:12.612Z,21.15
2019-04-20T11:18:47.292Z,20.59
2019-04-20T11:21:24.492Z,20.72
2019-04-20T11:23:58.407Z,20.78
2019-04-20T11:26:36.300Z,21.28
2019-04-20T11:29:10.543Z,21.47
2019-04-20T11:31:49.503Z,20.70
2019-04-20T11:34:23.477Z,20.75
2019-04-20T11:36:57.384Z,20.97
2019-04-20T11:39:32.954Z,20.66
2019-04-20T11:42:08.282Z,21.46
2019-04-20T11:44:42.536Z,21.39
2019-04-20T11:47:16.800Z,21.52
2019-04-20T11:49:53.404Z,21.50
2019-04-20T11:52:33.205Z,22.27
2019-04-20T11:55:04.416Z,21.95
2019-04-20T11:57:39.716Z,21.81
2019-04-20T12:00:17.285Z,21.68
2019-04-20T12:03:31.493Z,20.23
2019-04-20T12:06:04.672Z,21.29
2019-04-20T12:08:38.858Z,20.41
2019-04-20T12:11:23.060Z,20.91
2019-04-20T12:13:46.836Z,20.15
2019-04-20T12:16:21.526Z,20.05
2019-04-20T12:18:56.629Z,19.49
2019-04-20T12:21:30.748Z,19.72
2019-04-20T12:24:06.730Z,20.75
2019-04-20T12:26:42.739Z,19.85
2019-04-20T12:29:17.524Z,19.03
2019-04-20T12:31:56.288Z,19.08
2019-04-20T12:34:26.699Z,20.06
2019-04-20T12:37:05.014Z,19.20
2019-04-20T12:39:39.461Z,19.75
2019-04-20T12:42:14.719Z,19.58
2019-04-20T12:44:49.984Z,19.20
2019-04-20T12:47:25.742Z,18.46
2019-04-20T12:50:01.422Z,18.54
2019-04-20T12:52:36.529Z,19.01
2019-04-20T12:55:10.743Z,18.46
2019-04-20T12:57:46.889Z,18.61
2019-04-20T13:00:23.694Z,18.63
2019-04-20T13:02:57.480Z,18.72
2019-04-20T13:05:31.888Z,18.99
2019-04-20T13:08:07.155Z,18.50
2019-04-20T13:10:44.465Z,19.47
2019-04-20T13:13:34.434Z,18.78
2019-04-20T13:16:20.603Z,19.13
2019-04-20T13:18:59.362Z,18.96
2019-04-20T13:21:34.842Z,19.05
2019-04-20T13:24:09.271Z,18.68
2019-04-20T13:26:45.362Z,18.34
2019-04-20T13:29:20.685Z,18.42
2019-04-20T13:31:56.280Z,17.43
2019-04-20T13:34:29.977Z,17.37
2019-04-20T13:37:04.271Z,18.38
2019-04-20T13:39:38.681Z,17.34
2019-04-20T13:42:21.196Z,18.22
2019-04-20T13:44:50.853Z,18.79
2019-04-20T13:47:28.181Z,17.20
2019-04-20T13:50:03.324Z,17.52
2019-04-20T13:52:37.285Z,18.16
2019-04-20T13:55:12.833Z,17.68
2019-04-20T13:58:07.330Z,17.55
2019-04-20T14:00:58.690Z,16.87
2019-04-20T14:03:34.840Z,16.86
2019-04-20T14:06:10.990Z,17.66
2019-04-20T14:08:45.876Z,18.87
2019-04-20T14:11:20.825Z,18.37
2019-04-20T14:13:59.830Z,16.94
2019-04-20T14:16:31.559Z,17.36
2019-04-20T14:19:05.472Z,17.43
2019-04-20T14:21:39.175Z,18.04
2019-04-20T14:24:15.062Z,18.79
2019-04-20T14:26:50.785Z,18.12
2019-04-20T14:29:27.572Z,18.54
2019-04-20T14:32:03.495Z,18.13
2019-04-20T14:34:36.600Z,17.69
2019-04-20T14:37:11.301Z,18.30
2019-04-20T14:39:46.173Z,18.03
2019-04-20T14:42:33.108Z,17.78
2019-04-20T14:44:55.580Z,17.41
2019-04-20T14:47:31.798Z,18.13
2019-04-20T14:50:07.631Z,18.83
2019-04-20T14:52:41.780Z,18.87
2019-04-20T14:55:17.379Z,19.00
2019-04-20T14:57:53.097Z,17.05
2019-04-20T15:01:00.582Z,17.46
2019-04-20T15:03:38.717Z,17.87
2019-04-20T15:06:13.771Z,17.70
2019-04-20T15:08:48.606Z,18.64
2019-04-20T15:11:22.950Z,18.30
2019-04-20T15:13:58.499Z,18.51
2019-04-20T15:16:34.790Z,18.08
2019-04-20T15:19:27.540Z,17.45
2019-04-20T15:22:05.333Z,18.51
2019-04-20T15:24:41.788Z,18.82
2019-04-20T15:27:18.260Z,18.43
2019-04-20T15:29:54.041Z,18.49
2019-04-20T15:32:29.076Z,18.10
2019-04-20T15:35:03.120Z,18.39
2019-04-20T15:37:39.520Z,18.01
2019-04-20T15:40:15.144Z,18.54
2019-04-20T15:42:58.924Z,18.36
2019-04-20T15:45:25.296Z,18.17
2019-04-20T15:48:01.722Z,17.60
2019-04-20T15:50:36.032Z,18.21
2019-04-20T15:53:13.516Z,18.19
2019-04-20T15:55:49.207Z,18.22
2019-04-20T15:58:26.067Z,18.10
2019-04-20T16:01:00.549Z,18.59
2019-04-20T16:03:39.465Z,18.40
2019-04-20T16:06:13.623Z,18.36
2019-04-20T16:08:50.290Z,19.05
2019-04-20T16:11:23.545Z,19.15
2019-04-20T16:13:58.219Z,19.65
2019-04-20T16:16:34.145Z,20.62
2019-04-20T16:19:25.917Z,20.98
2019-04-20T16:21:47.891Z,21.04
2019-04-20T16:24:26.106Z,20.69
2019-04-20T16:27:25.797Z,20.45
2019-04-20T16:29:59.943Z,20.55
2019-04-20T16:32:34.376Z,21.57
2019-04-20T16:35:10.795Z,20.52
2019-04-20T16:37:46.409Z,20.34
2019-04-20T16:40:23.295Z,20.67
2019-04-20T16:42:58.429Z,20.95
2019-04-20T16:45:34.987Z,21.39
2019-04-20T16:48:10.375Z,21.88
2019-04-20T16:50:45.004Z,21.82
2019-04-20T16:53:19.117Z,22.17
2019-04-20T16:55:52.903Z,21.84
2019-04-20T16:58:28.162Z,21.93
2019-04-20T17:01:03.460Z,21.56
2019-04-20T17:03:49.454Z,21.48
2019-04-20T17:06:13.820Z,22.04
2019-04-20T17:08:47.915Z,22.15
2019-04-20T17:11:25.789Z,22.41
2019-04-20T17:14:03.534Z,22.74
2019-04-20T17:16:37.655Z,22.61
2019-04-20T17:19:11.528Z,22.79
2019-04-20T17:21:46.497Z,22.92
2019-04-20T17:24:21.628Z,22.94
2019-04-20T17:27:08.886Z,22.76
2019-04-20T17:30:00.986Z,22.84
2019-04-20T17:32:35.466Z,23.70
2019-04-20T17:35:21.868Z,23.89
2019-04-20T17:37:49.825Z,23.89
2019-04-20T17:40:39.768Z,24.05
2019-04-20T17:43:06.546Z,24.15
2019-04-20T17:45:43.196Z,24.01
2019-04-20T17:48:25.582Z,24.04
2019-04-20T17:51:04.747Z,24.39
2019-04-20T17:53:50.955Z,24.70
2019-04-20T17:56:22.120Z,24.99
2019-04-20T17:58:56.420Z,25.33
2019-04-20T18:02:16.840Z,25.76
2019-04-20T18:05:09.834Z,26.14
2019-04-20T18:07:41.278Z,26.36
2019-04-20T18:10:11.449Z,26.77
2019-04-20T18:12:42.061Z,26.99
2019-04-20T18:15:29.476Z,27.31
2019-04-20T18:18:31.208Z,27.44
2019-04-20T18:21:10.944Z,27.48
2019-04-20T18:23:48.164Z,27.73
2019-04-20T18:26:38.102Z,27.74
2019-04-20T18:29:14.974Z,28.04
2019-04-20T18:31:51.465Z,28.29
2019-04-20T18:34:51.298Z,28.37
2019-04-20T18:37:22.062Z,28.70
2019-04-20T18:40:05.102Z,28.83
2019-04-20T18:42:38.844Z,28.67
2019-04-20T18:45:27.928Z,28.76
2019-04-20T18:48:02.726Z,28.99
2019-04-20T18:50:27.645Z,28.80
2019-04-20T18:52:57.971Z,29.39
2019-04-20T18:55:41.679Z,29.69
2019-04-20T18:58:07.447Z,30.19
2019-04-20T19:00:45.761Z,30.44
2019-04-20T19:03:25.421Z,31.00
2019-04-20T19:05:52.012Z,31.38
2019-04-20T19:08:33.776Z,32.20
2019-04-20T19:11:09.131Z,33.03
2019-04-20T19:13:59.194Z,32.33
2019-04-20T19:16:52.427Z,32.72
2019-04-20T19:19:42.403Z,34.01
2019-04-20T19:22:14.248Z,32.72
2019-04-20T19:24:48.084Z,32.63
2019-04-20T19:27:30.241Z,32.63
2019-04-20T19:30:11.687Z,32.69
2019-04-20T19:32:54.489Z,33.37
2019-04-20T19:35:25.940Z,33.07
2019-04-20T19:37:58.411Z,33.74
2019-04-20T19:40:33.855Z,33.56
2019-04-20T19:43:08.481Z,33.57
2019-04-20T19:46:07.405Z,34.89
2019-04-20T19:48:30.811Z,35.08
2019-04-20T19:51:14.475Z,35.60
2019-04-20T19:53:48.835Z,36.53
2019-04-20T19:56:10.671Z,36.90
2019-04-20T19:58:53.403Z,37.63
2019-04-20T20:01:13.606Z,37.57
2019-04-20T20:03:56.359Z,37.67
2019-04-20T20:06:32.540Z,37.97
2019-04-20T20:09:06.731Z,38.43
2019-04-20T20:11:42.341Z,38.23
2019-04-20T20:14:18.060Z,38.26
2019-04-20T20:17:08.448Z,37.85
2019-04-20T20:19:38.122Z,38.27
2019-04-20T20:22:13.224Z,39.00
2019-04-20T20:24:40.971Z,38.08
2019-04-20T20:27:25.392Z,38.96
2019-04-20T20:30:00.499Z,40.05
2019-04-20T20:32:44.884Z,38.04
2019-04-20T20:35:12.637Z,38.85
2019-04-20T20:37:48.033Z,39.75
2019-04-20T20:40:24.866Z,40.30
2019-04-20T20:43:06.495Z,38.46
2019-04-20T20:45:36.181Z,37.98
2019-04-20T20:48:22.699Z,38.16
2019-04-20T20:50:58.974Z,38.36
2019-04-20T20:53:32.614Z,39.25
2019-04-20T20:56:06.631Z,39.14
2019-04-20T20:58:43.057Z,39.80
2019-04-20T21:01:14.381Z,39.36
2019-04-20T21:03:46.062Z,39.23
2019-04-20T21:06:20.140Z,39.29
2019-04-20T21:08:58.309Z,39.62
2019-04-20T21:11:34.792Z,39.42
2019-04-20T21:14:08.945Z,39.80
2019-04-20T21:16:52.230Z,39.77
2019-04-20T21:19:35.337Z,39.88
2019-04-20T21:22:02.976Z,40.15
2019-04-20T21:24:37.856Z,40.40
2019-04-20T21:27:16.526Z,41.12
2019-04-20T21:29:51.459Z,41.67
2019-04-20T21:32:23.717Z,41.93
2019-04-20T21:35:03.506Z,42.41
2019-04-20T21:37:35.355Z,42.47
2019-04-20T21:40:21.585Z,43.07
2019-04-20T21:42:54.775Z,43.30
2019-04-20T21:45:28.633Z,44.16
2019-04-20T21:48:02.243Z,44.44
2019-04-20T21:50:57.526Z,44.94
2019-04-20T21:53:17.875Z,45.36
2019-04-20T21:55:48.005Z,45.77
2019-04-20T21:58:29.823Z,46.24
2019-04-20T22:01:15.066Z,46.75
2019-04-20T22:03:36.323Z,46.83
2019-04-20T22:06:12.310Z,47.00
2019-04-20T22:08:52.895Z,47.40
2019-04-20T22:11:22.069Z,47.94
2019-04-20T22:14:03.151Z,48.59
2019-04-20T22:16:38.909Z,49.25
2019-04-20T22:19:25.967Z,49.90
2019-04-20T22:21:59.871Z,50.25
2019-04-20T22:24:40.259Z,50.69
2019-04-20T22:27:06.492Z,50.75
2019-04-20T22:29:36.375Z,51.18
2019-04-20T22:32:16.196Z,51.64
2019-04-20T22:34:56.836Z,52.00
2019-04-20T22:37:28.655Z,52.27
2019-04-20T22:40:03.080Z,52.71
2019-04-20T22:43:06.243Z,53.09
2019-04-20T22:45:46.624Z,53.53
2019-04-20T22:48:18.003Z,54.08
2019-04-20T22:51:14.271Z,54.53
2019-04-20T22:53:44.013Z,54.77
2019-04-20T22:56:26.832Z,54.98
2019-04-20T22:58:54.182Z,55.33
2019-04-20T23:01:31.442Z,55.56
2019-04-20T23:03:54.799Z,55.74
2019-04-20T23:06:36.072Z,55.96
2019-04-20T23:09:14.664Z,56.43
2019-04-20T23:11:47.476Z,56.53
2019-04-20T23:14:22.380Z,56.49
2019-04-20T23:16:57.575Z,56.75
2019-04-20T23:19:42.825Z,57.00
2019-04-20T23:22:10.290Z,57.13
2019-04-20T23:24:44.884Z,57.35
2019-04-20T23:27:27.277Z,57.72
2019-04-20T23:29:58.374Z,57.77
2019-04-20T23:32:33.823Z,57.81
2019-04-20T23:35:16.014Z,58.11
2019-04-20T23:37:46.487Z,58.11
2019-04-20T23:40:21.675Z,58.45
2019-04-20T23:43:07.752Z,58.79
2019-04-20T23:46:15.159Z,59.08
2019-04-20T23:48:54.241Z,59.10
2019-04-20T23:51:49.571Z,58.69
2019-04-20T23:54:12.398Z,58.08
2019-04-20T23:56:47.886Z,57.61
2019-04-20T23:59:29.021Z,57.71
